createdAt,value
2019-02-07T04:50:20.836Z,101102.00
2019-02-07T04:52:59.050Z,101102.77
2019-02-07T04:55:29.554Z,101103.19
2019-02-07T04:58:04.696Z,101099.19
2019-02-07T05:00:53.378Z,101089.55
2019-02-07T05:03:25.824Z,101084.04
2019-02-07T05:06:07.003Z,101079.55
2019-02-07T05:08:42.142Z,101071.02
2019-02-07T05:11:30.999Z,101071.80
2019-02-07T05:14:20.993Z,101074.57
2019-02-07T05:16:59.095Z,101067.68
2019-02-07T05:19:48.004Z,101067.77
2019-02-07T05:22:26.170Z,101068.97
2019-02-07T05:25:00.800Z,101069.19
2019-02-07T05:27:38.809Z,101065.42
2019-02-07T05:30:29.944Z,101069.28
2019-02-07T05:33:11.053Z,101065.00
2019-02-07T05:35:58.114Z,101059.29
2019-02-07T05:38:33.147Z,101063.84
2019-02-07T05:41:14.087Z,101057.04
2019-02-07T05:44:02.598Z,101057.70
2019-02-07T05:46:53.064Z,101048.70
2019-02-07T05:49:34.633Z,101043.87
2019-02-07T05:52:12.446Z,101037.03
2019-02-07T05:54:56.544Z,101041.05
2019-02-07T05:57:28.954Z,101042.88
2019-02-07T06:00:17.242Z,101033.01
2019-02-07T06:03:05.960Z,101039.86
2019-02-07T06:05:53.274Z,101026.65
2019-02-07T06:08:31.200Z,101027.99
2019-02-07T06:11:09.313Z,101029.53
2019-02-07T06:13:44.080Z,101030.70
2019-02-07T06:16:32.035Z,101031.36
2019-02-07T06:19:16.050Z,101026.33
2019-02-07T06:21:54.062Z,101035.54
2019-02-07T06:24:41.495Z,101031.72
2019-02-07T06:27:29.970Z,101036.06
2019-02-07T06:30:05.090Z,101042.11
2019-02-07T06:32:37.142Z,101042.27
2019-02-07T06:35:09.451Z,101036.23
2019-02-07T06:37:48.165Z,101041.27
2019-02-07T06:40:23.180Z,101037.94
2019-02-07T06:42:55.243Z,101030.59
2019-02-07T06:45:30.061Z,101026.73
2019-02-07T06:48:02.492Z,101024.74
2019-02-07T06:50:46.840Z,101017.20
2019-02-07T06:53:24.810Z,101012.53
2019-02-07T06:56:13.203Z,101009.03
2019-02-07T06:58:47.963Z,101008.38
2019-02-07T07:01:26.196Z,101011.05
2019-02-07T07:04:01.219Z,100997.33
2019-02-07T07:06:36.356Z,101000.36
2019-02-07T07:09:25.467Z,100997.68
2019-02-07T07:12:00.236Z,100996.50
2019-02-07T07:14:32.331Z,100996.66
2019-02-07T07:17:25.858Z,101000.38
2019-02-07T07:20:00.836Z,101007.39
2019-02-07T07:22:45.923Z,101008.90
2019-02-07T07:25:36.094Z,101011.08
2019-02-07T07:28:24.318Z,101006.73
2019-02-07T07:30:59.414Z,101012.11
2019-02-07T07:33:34.202Z,101014.45
2019-02-07T07:36:12.462Z,101020.16
2019-02-07T07:38:47.347Z,101019.31
2019-02-07T07:41:35.735Z,101012.09
2019-02-07T07:44:14.226Z,101008.90
2019-02-07T07:46:46.274Z,101010.41
2019-02-07T07:49:36.373Z,101001.69
2019-02-07T07:52:17.845Z,101001.99
2019-02-07T07:54:52.994Z,100997.96
2019-02-07T07:57:37.036Z,100999.45
2019-02-07T08:00:12.760Z,100999.44
2019-02-07T08:03:03.406Z,101003.25
2019-02-07T08:05:41.094Z,100999.55
2019-02-07T08:08:19.403Z,100999.83
2019-02-07T08:11:00.577Z,100987.89
2019-02-07T08:13:35.824Z,100984.66
2019-02-07T08:16:14.202Z,100985.65
2019-02-07T08:18:49.007Z,100982.11
2019-02-07T08:21:29.953Z,100972.01
2019-02-07T08:24:02.177Z,100968.86
2019-02-07T08:26:34.697Z,100963.17
2019-02-07T08:29:23.247Z,100966.81
2019-02-07T08:32:11.720Z,100954.66
2019-02-07T08:34:43.774Z,100952.32
2019-02-07T08:37:15.834Z,100946.97
2019-02-07T08:39:50.557Z,100944.63
2019-02-07T08:42:34.605Z,100944.77
2019-02-07T08:45:10.072Z,100945.53
2019-02-07T08:47:58.470Z,100947.04
2019-02-07T08:50:24.737Z,100951.11
2019-02-07T08:53:12.362Z,100947.09
2019-02-07T08:56:00.628Z,100950.45
2019-02-07T08:58:38.518Z,100942.26
2019-02-07T09:01:27.177Z,100938.40
2019-02-07T09:04:05.253Z,100937.72
2019-02-07T09:06:55.478Z,100934.22
2019-02-07T09:09:33.793Z,100927.45
2019-02-07T09:12:08.415Z,100933.04
2019-02-07T09:14:52.670Z,100929.09
2019-02-07T09:17:24.937Z,100921.40
2019-02-07T09:19:57.051Z,100919.67
2019-02-07T09:22:41.365Z,100914.06
2019-02-07T09:25:13.507Z,100914.06
2019-02-07T09:28:02.109Z,100910.33
2019-02-07T09:30:52.004Z,100905.83
2019-02-07T09:33:33.489Z,100908.59
2019-02-07T09:36:10.106Z,100897.30
2019-02-07T09:38:51.382Z,100894.30
2019-02-07T09:41:26.047Z,100898.77
2019-02-07T09:44:14.276Z,100898.42
2019-02-07T09:46:49.725Z,100889.67
2019-02-07T09:49:27.734Z,100881.06
2019-02-07T09:52:14.953Z,100878.50
2019-02-07T09:54:49.928Z,100880.33
2019-02-07T09:57:37.004Z,100876.34
2019-02-07T10:00:14.809Z,100874.31
2019-02-07T10:02:46.972Z,100868.70
2019-02-07T10:05:34.309Z,100862.86
2019-02-07T10:08:06.771Z,100856.76
2019-02-07T10:10:54.925Z,100848.25
2019-02-07T10:13:26.972Z,100854.81
2019-02-07T10:16:01.641Z,100847.54
2019-02-07T10:18:53.550Z,100842.94
2019-02-07T10:21:42.112Z,100840.97
2019-02-07T10:24:14.163Z,100825.91
2019-02-07T10:26:48.860Z,100831.42
2019-02-07T10:29:21.281Z,100819.14
2019-02-07T10:31:56.101Z,100810.39
2019-02-07T10:34:34.104Z,100809.77
2019-02-07T10:37:12.214Z,100804.02
2019-02-07T10:39:50.521Z,100797.92
2019-02-07T10:42:38.774Z,100795.84
2019-02-07T10:45:17.498Z,100786.70
2019-02-07T10:47:58.421Z,100780.81
2019-02-07T10:50:39.611Z,100780.41
2019-02-07T10:53:28.305Z,100779.89
2019-02-07T10:56:16.838Z,100779.84
2019-02-07T10:59:05.078Z,100765.77
2019-02-07T11:01:52.642Z,100751.32
2019-02-07T11:04:24.944Z,100755.27
2019-02-07T11:07:03.013Z,100745.52
2019-02-07T11:09:38.571Z,100743.00
2019-02-07T11:12:13.598Z,100737.11
2019-02-07T11:15:02.007Z,100726.03
2019-02-07T11:17:34.673Z,100720.50
2019-02-07T11:20:12.728Z,100714.30
2019-02-07T11:22:50.744Z,100704.50
2019-02-07T11:25:31.716Z,100701.95
2019-02-07T11:28:10.554Z,100690.79
2019-02-07T11:30:40.665Z,100683.55
2019-02-07T11:33:12.732Z,100681.06
2019-02-07T11:35:47.566Z,100676.66
2019-02-07T11:38:33.048Z,100663.31
2019-02-07T11:41:24.163Z,100657.42
2019-02-07T11:43:56.612Z,100645.97
2019-02-07T11:46:28.911Z,100649.93
2019-02-07T11:49:06.900Z,100640.18
2019-02-07T11:51:49.650Z,100639.47
2019-02-07T11:54:36.981Z,100625.39
2019-02-07T11:57:09.127Z,100620.19
2019-02-07T11:59:47.212Z,100615.57
2019-02-07T12:02:22.575Z,100613.86
2019-02-07T12:05:11.469Z,100607.52
2019-02-07T12:07:59.885Z,100601.74
2019-02-07T12:10:40.998Z,100602.34
2019-02-07T12:13:18.666Z,100606.17
2019-02-07T12:15:50.703Z,100603.80
2019-02-07T12:18:28.637Z,100603.22
2019-02-07T12:21:00.700Z,100591.39
2019-02-07T12:23:33.891Z,100593.84
2019-02-07T12:26:06.161Z,100589.34
2019-02-07T12:28:38.577Z,100582.28
2019-02-07T12:31:10.640Z,100576.91
2019-02-07T12:33:59.261Z,100563.32
2019-02-07T12:36:37.779Z,100555.36
2019-02-07T12:39:10.767Z,100554.19
2019-02-07T12:41:54.916Z,100544.68
2019-02-07T12:44:43.160Z,100549.56
2019-02-07T12:47:15.508Z,100546.12
2019-02-07T12:50:04.163Z,100530.16
2019-02-07T12:52:52.639Z,100523.29
2019-02-07T12:55:33.522Z,100526.52
2019-02-07T12:58:08.349Z,100526.35
2019-02-07T13:00:56.289Z,100530.00
2019-02-07T13:03:37.109Z,100518.84
2019-02-07T13:06:18.135Z,100516.08
2019-02-07T13:08:53.296Z,100527.63
2019-02-07T13:11:41.842Z,100531.39
2019-02-07T13:14:13.909Z,100528.64
2019-02-07T13:16:46.379Z,100537.02
2019-02-07T13:19:40.559Z,100539.42
2019-02-07T13:22:13.043Z,100532.44
2019-02-07T13:24:45.102Z,100535.34
2019-02-07T13:27:33.801Z,100532.37
2019-02-07T13:30:14.878Z,100531.48
2019-02-07T13:33:02.524Z,100525.98
2019-02-07T13:35:46.842Z,100529.38
2019-02-07T13:38:24.935Z,100521.85
2019-02-07T13:40:59.961Z,100526.17
2019-02-07T13:43:32.001Z,100519.84
2019-02-07T13:46:07.166Z,100522.00
2019-02-07T13:48:39.321Z,100515.84
2019-02-07T13:51:12.739Z,100508.81
2019-02-07T13:53:51.451Z,100512.77
2019-02-07T13:56:39.802Z,100497.80
2019-02-07T13:59:14.930Z,100495.70
2019-02-07T14:01:50.081Z,100493.20
2019-02-07T14:04:38.734Z,100495.55
2019-02-07T14:07:11.219Z,100493.59
2019-02-07T14:09:44.409Z,100493.73
2019-02-07T14:12:16.470Z,100488.33
2019-02-07T14:14:54.521Z,100482.55
2019-02-07T14:17:41.936Z,100476.45
2019-02-07T14:20:23.044Z,100473.06
2019-02-07T14:22:58.378Z,100470.58
2019-02-07T14:25:42.273Z,100477.23
2019-02-07T14:28:23.347Z,100477.81
2019-02-07T14:31:01.888Z,100479.31
2019-02-07T14:33:51.994Z,100479.72
2019-02-07T14:36:26.805Z,100474.83
2019-02-07T14:38:58.953Z,100474.16
2019-02-07T14:41:43.209Z,100470.94
2019-02-07T14:44:31.827Z,100474.56
2019-02-07T14:47:02.399Z,100474.57
2019-02-07T14:49:34.676Z,100467.13
2019-02-07T14:52:05.095Z,100465.83
2019-02-07T14:54:35.497Z,100461.86
2019-02-07T14:57:05.988Z,100466.15
2019-02-07T14:59:36.455Z,100459.50
2019-02-07T15:02:06.884Z,100458.13
2019-02-07T15:04:37.550Z,100459.80
2019-02-07T15:07:07.976Z,100459.41
2019-02-07T15:09:38.512Z,100459.69
2019-02-07T15:12:08.905Z,100459.84
2019-02-07T15:14:39.304Z,100455.83
2019-02-07T15:17:09.996Z,100449.66
2019-02-07T15:19:41.448Z,100452.98
2019-02-07T15:22:11.885Z,100462.22
2019-02-07T15:24:42.414Z,100459.55
2019-02-07T15:27:13.079Z,100457.73
2019-02-07T15:29:43.536Z,100455.02
2019-02-07T15:32:14.354Z,100450.34
2019-02-07T15:34:44.804Z,100444.45
2019-02-07T15:37:15.373Z,100445.45
2019-02-07T15:39:45.933Z,100444.38
2019-02-07T15:42:16.439Z,100445.81
2019-02-07T15:44:46.972Z,100437.92
2019-02-07T15:47:17.364Z,100440.09
2019-02-07T15:49:47.834Z,100438.59
2019-02-07T15:52:18.258Z,100443.89
2019-02-07T15:54:48.844Z,100438.19
2019-02-07T15:57:19.261Z,100434.13
2019-02-07T15:59:50.714Z,100436.97
2019-02-07T16:02:21.244Z,100439.05
2019-02-07T16:04:51.886Z,100439.63
2019-02-07T16:07:22.415Z,100437.08
2019-02-07T16:09:54.483Z,100440.92
2019-02-07T16:12:25.419Z,100447.47
2019-02-07T16:14:55.815Z,100446.73
2019-02-07T16:17:26.274Z,100451.36
2019-02-07T16:19:56.813Z,100450.74
2019-02-07T16:22:27.238Z,100451.17
2019-02-07T16:24:57.655Z,100447.25
2019-02-07T16:27:28.154Z,100445.70
2019-02-07T16:29:58.634Z,100437.73
2019-02-07T16:32:29.120Z,100440.10
2019-02-07T16:34:59.554Z,100443.02
2019-02-07T16:37:29.969Z,100454.91
2019-02-07T16:40:00.752Z,100454.88
2019-02-07T16:42:31.241Z,100458.53
2019-02-07T16:45:03.030Z,100455.45
2019-02-07T16:47:37.008Z,100452.88
2019-02-07T16:50:13.898Z,100451.33
2019-02-07T16:52:46.057Z,100452.80
2019-02-07T16:55:17.877Z,100455.00
2019-02-07T16:57:49.903Z,100451.55
2019-02-07T17:00:25.951Z,100453.74
2019-02-07T17:02:57.064Z,100458.55
2019-02-07T17:05:27.735Z,100462.69
2019-02-07T17:07:58.358Z,100463.19
2019-02-07T17:10:37.963Z,100460.20
2019-02-07T17:13:10.729Z,100458.34
2019-02-07T17:15:41.422Z,100460.83
2019-02-07T17:18:12.901Z,100457.20
2019-02-07T17:20:43.410Z,100460.41
2019-02-07T17:23:13.833Z,100462.47
2019-02-07T17:25:44.244Z,100464.55
2019-02-07T17:28:15.167Z,100461.04
2019-02-07T17:30:45.812Z,100457.20
2019-02-07T17:33:16.427Z,100462.09
2019-02-07T17:35:46.861Z,100461.88
2019-02-07T17:38:17.259Z,100460.02
2019-02-07T17:40:47.715Z,100456.39
2019-02-07T17:43:18.255Z,100454.58
2019-02-07T17:45:48.886Z,100458.55
2019-02-07T17:48:20.446Z,100460.41
2019-02-07T17:50:50.831Z,100462.27
2019-02-07T17:53:21.254Z,100466.02
2019-02-07T17:55:51.931Z,100471.42
2019-02-07T17:58:23.445Z,100464.75
2019-02-07T18:01:01.437Z,100469.02
2019-02-07T18:03:32.970Z,100475.31
2019-02-07T18:06:04.719Z,100475.93
2019-02-07T18:08:35.339Z,100471.63
2019-02-07T18:11:05.818Z,100478.16
2019-02-07T18:13:36.286Z,100482.94
2019-02-07T18:16:06.774Z,100477.86
2019-02-07T18:18:37.319Z,100475.46
2019-02-07T18:21:07.715Z,100475.50
2019-02-07T18:23:38.255Z,100473.78
2019-02-07T18:26:08.704Z,100478.85
2019-02-07T18:28:39.102Z,100484.25
2019-02-07T18:31:09.510Z,100484.59
2019-02-07T18:33:41.188Z,100486.37
2019-02-07T18:36:11.967Z,100483.88
2019-02-07T18:38:42.371Z,100488.65
2019-02-07T18:41:12.867Z,100486.40
2019-02-07T18:43:43.285Z,100493.03
2019-02-07T18:46:13.693Z,100493.45
2019-02-07T18:48:44.166Z,100499.91
2019-02-07T18:51:14.637Z,100496.16
2019-02-07T18:53:45.060Z,100495.43
2019-02-07T18:56:15.473Z,100502.06
2019-02-07T18:58:45.947Z,100505.28
2019-02-07T19:01:16.347Z,100507.14
2019-02-07T19:03:47.028Z,100514.44
2019-02-07T19:06:17.428Z,100512.57
2019-02-07T19:08:47.824Z,100511.43
2019-02-07T19:11:18.303Z,100511.33
2019-02-07T19:13:48.705Z,100514.97
2019-02-07T19:16:19.107Z,100515.05
2019-02-07T19:18:49.792Z,100512.46
2019-02-07T19:21:20.218Z,100519.63
2019-02-07T19:23:50.640Z,100522.22
2019-02-07T19:26:21.172Z,100518.70
2019-02-07T19:28:51.554Z,100518.81
2019-02-07T19:31:22.075Z,100521.73
2019-02-07T19:33:52.498Z,100526.49
2019-02-07T19:36:22.991Z,100522.03
2019-02-07T19:38:53.380Z,100526.08
2019-02-07T19:41:23.782Z,100520.98
2019-02-07T19:43:54.231Z,100523.91
2019-02-07T19:46:24.976Z,100532.09
2019-02-07T19:48:55.501Z,100528.15
2019-02-07T19:51:26.032Z,100526.56
2019-02-07T19:53:56.432Z,100525.52
2019-02-07T19:56:26.820Z,100527.15
2019-02-07T19:58:57.227Z,100529.14
2019-02-07T20:01:27.620Z,100530.18
2019-02-07T20:03:58.031Z,100534.64
2019-02-07T20:06:28.499Z,100531.60
2019-02-07T20:08:58.918Z,100530.00
2019-02-07T20:11:30.828Z,100535.92
2019-02-07T20:14:01.514Z,100544.35
2019-02-07T20:16:31.958Z,100544.22
2019-02-07T20:19:02.372Z,100543.48
2019-02-07T20:21:32.800Z,100537.34
2019-02-07T20:24:03.331Z,100541.99
2019-02-07T20:26:33.723Z,100542.73
2019-02-07T20:29:04.192Z,100547.69
2019-02-07T20:31:34.603Z,100551.83
2019-02-07T20:34:05.093Z,100560.97
2019-02-07T20:36:35.815Z,100559.66
2019-02-07T20:39:07.536Z,100558.30
2019-02-07T20:41:38.002Z,100560.39
2019-02-07T20:44:08.482Z,100566.09
2019-02-07T20:46:38.959Z,100564.04
2019-02-07T20:49:10.031Z,100567.00
2019-02-07T20:51:40.500Z,100574.34
2019-02-07T20:54:10.928Z,100576.03
2019-02-07T20:56:41.398Z,100577.53
2019-02-07T20:59:11.890Z,100572.84
2019-02-07T21:01:42.309Z,100580.33
2019-02-07T21:04:12.841Z,100587.47
2019-02-07T21:06:43.272Z,100585.87
2019-02-07T21:09:13.705Z,100589.22
2019-02-07T21:11:44.099Z,100592.61
2019-02-07T21:14:14.767Z,100593.16
2019-02-07T21:16:45.171Z,100598.86
2019-02-07T21:19:15.624Z,100597.01
